createdAt,value
2022-12-31T00:00:25.469Z,0.70
2022-12-31T00:02:52.637Z,0.80
2022-12-31T00:05:19.812Z,0.90
2022-12-31T00:07:46.881Z,1.03
2022-12-31T00:10:14.369Z,0.90
2022-12-31T00:12:41.513Z,2.17
2022-12-31T00:15:09.359Z,0.70
2022-12-31T00:17:36.427Z,0.50
2022-12-31T00:20:03.679Z,0.60
2022-12-31T00:22:30.782Z,0.63
2022-12-31T00:24:57.863Z,0.80
2022-12-31T00:27:24.980Z,0.70
2022-12-31T00:29:52.024Z,0.80
2022-12-31T00:32:19.462Z,0.70
2022-12-31T00:34:46.487Z,0.70
2022-12-31T00:37:13.588Z,0.60
2022-12-31T00:39:40.704Z,0.90
2022-12-31T00:42:08.443Z,2.00
2022-12-31T00:44:35.444Z,0.70
2022-12-31T00:47:02.490Z,0.60
2022-12-31T00:49:29.556Z,1.17
2022-12-31T00:51:56.719Z,1.03
2022-12-31T00:54:23.768Z,1.17
2022-12-31T00:56:50.807Z,1.03
2022-12-31T00:59:17.890Z,3.30
2022-12-31T01:01:45.109Z,0.60
2022-12-31T01:04:19.744Z,0.80
2022-12-31T01:06:47.333Z,0.70
2022-12-31T01:09:16.545Z,0.60
2022-12-31T01:11:44.345Z,0.63
2022-12-31T01:14:15.812Z,0.60
2022-12-31T01:16:45.896Z,0.60
2022-12-31T01:19:20.777Z,0.53
2022-12-31T01:21:48.917Z,0.60
2022-12-31T01:24:16.661Z,0.80
2022-12-31T01:26:44.286Z,0.90
2022-12-31T01:29:13.338Z,0.60
2022-12-31T01:31:41.239Z,0.70
2022-12-31T01:34:09.247Z,1.33
2022-12-31T01:36:38.119Z,0.70
2022-12-31T01:39:08.232Z,0.70
2022-12-31T01:41:40.335Z,0.80
2022-12-31T01:44:13.634Z,1.73
2022-12-31T01:46:52.854Z,1.10
2022-12-31T01:49:44.184Z,2.03
2022-12-31T01:52:33.230Z,2.13
2022-12-31T01:55:22.752Z,1.00
2022-12-31T01:57:57.480Z,1.20
2022-12-31T02:00:24.801Z,1.20
2022-12-31T02:02:52.289Z,1.23
2022-12-31T02:05:27.643Z,1.83
2022-12-31T02:07:55.018Z,2.43
2022-12-31T02:10:22.200Z,1.27
2022-12-31T02:12:49.378Z,1.40
2022-12-31T02:15:17.628Z,2.50
2022-12-31T02:18:00.337Z,2.30
2022-12-31T02:21:08.384Z,1.13
2022-12-31T02:24:19.584Z,2.37
2022-12-31T02:27:03.531Z,1.23
2022-12-31T02:30:01.842Z,1.60
2022-12-31T02:32:48.943Z,0.80
2022-12-31T02:35:41.435Z,0.77
2022-12-31T02:38:24.076Z,0.50
2022-12-31T02:40:56.732Z,0.60
2022-12-31T02:43:25.781Z,0.70
2022-12-31T02:46:22.048Z,0.60
2022-12-31T02:49:38.608Z,1.07
2022-12-31T02:53:02.191Z,1.13
2022-12-31T02:56:09.464Z,0.60
2022-12-31T02:59:34.511Z,0.50
2022-12-31T03:02:13.928Z,0.60
2022-12-31T03:04:46.450Z,0.60
2022-12-31T03:07:19.519Z,0.63
2022-12-31T03:09:46.714Z,0.70
2022-12-31T03:12:33.856Z,1.03
2022-12-31T03:15:00.978Z,0.90
2022-12-31T03:17:28.044Z,0.50
2022-12-31T03:20:14.128Z,0.60
2022-12-31T03:22:43.360Z,0.50
2022-12-31T03:25:32.426Z,0.50
2022-12-31T03:28:00.929Z,0.50
2022-12-31T03:30:29.116Z,0.60
2022-12-31T03:32:56.862Z,1.63
2022-12-31T03:35:26.371Z,0.50
2022-12-31T03:37:53.835Z,0.50
2022-12-31T03:40:23.726Z,0.50
2022-12-31T03:42:51.351Z,1.03
2022-12-31T03:45:18.658Z,0.50
2022-12-31T03:47:46.080Z,0.50
2022-12-31T03:50:16.183Z,0.60
2022-12-31T03:52:43.755Z,0.50
2022-12-31T03:55:11.794Z,0.60
2022-12-31T03:57:39.180Z,0.60
2022-12-31T04:00:10.600Z,1.43
2022-12-31T04:02:37.945Z,0.50
2022-12-31T04:05:05.837Z,0.50
2022-12-31T04:07:32.947Z,0.50
2022-12-31T04:10:00.165Z,0.60
2022-12-31T04:12:27.325Z,0.80
2022-12-31T04:14:54.389Z,0.50
2022-12-31T04:17:21.552Z,0.50
2022-12-31T04:19:49.832Z,0.60
2022-12-31T04:22:17.070Z,0.50
2022-12-31T04:24:44.605Z,0.60
2022-12-31T04:27:13.117Z,0.50
2022-12-31T04:29:40.571Z,0.90
2022-12-31T04:32:10.108Z,0.57
2022-12-31T04:34:37.322Z,0.60
2022-12-31T04:37:04.583Z,1.27
2022-12-31T04:39:31.740Z,0.60
2022-12-31T04:41:58.811Z,0.60
2022-12-31T04:44:25.873Z,0.50
2022-12-31T04:46:52.925Z,0.80
2022-12-31T04:49:20.157Z,0.70
2022-12-31T04:51:47.625Z,1.70
2022-12-31T04:54:14.691Z,1.17
2022-12-31T04:56:41.731Z,0.70
2022-12-31T04:59:10.407Z,0.50
2022-12-31T05:01:38.656Z,1.13
2022-12-31T05:04:06.109Z,0.60
2022-12-31T05:06:33.408Z,0.50
2022-12-31T05:09:01.830Z,0.63
2022-12-31T05:11:28.973Z,0.60
2022-12-31T05:13:55.999Z,1.13
2022-12-31T05:16:23.190Z,0.93
2022-12-31T05:18:50.282Z,0.50
2022-12-31T05:21:21.844Z,0.60
2022-12-31T05:23:50.057Z,0.73
2022-12-31T05:26:17.858Z,0.63
2022-12-31T05:28:44.935Z,0.50
2022-12-31T05:31:12.065Z,1.57
2022-12-31T05:33:39.277Z,0.97
2022-12-31T05:36:06.825Z,0.50
2022-12-31T05:38:34.180Z,0.50
2022-12-31T05:41:03.861Z,1.00
2022-12-31T05:43:32.061Z,0.60
2022-12-31T05:46:04.643Z,2.83
2022-12-31T05:48:32.518Z,0.50
2022-12-31T05:50:59.769Z,0.50
2022-12-31T05:53:26.845Z,0.60
2022-12-31T05:55:53.889Z,0.50
2022-12-31T05:58:20.965Z,0.50
2022-12-31T06:00:48.091Z,0.50
2022-12-31T06:03:15.209Z,0.50
2022-12-31T06:05:43.563Z,0.60
2022-12-31T06:08:12.123Z,1.43
2022-12-31T06:10:40.222Z,0.60
2022-12-31T06:13:08.145Z,0.60
2022-12-31T06:15:40.273Z,0.70
2022-12-31T06:18:07.962Z,0.53
2022-12-31T06:20:38.874Z,0.60
2022-12-31T06:23:06.191Z,0.60
2022-12-31T06:25:37.072Z,0.50
2022-12-31T06:28:05.919Z,0.60
2022-12-31T06:30:35.885Z,0.90
2022-12-31T06:33:03.143Z,0.80
2022-12-31T06:35:30.209Z,0.60
2022-12-31T06:37:57.246Z,1.93
2022-12-31T06:40:24.655Z,0.50
2022-12-31T06:42:56.120Z,1.13
2022-12-31T06:45:27.043Z,0.60
2022-12-31T06:47:54.137Z,0.50
2022-12-31T06:50:21.461Z,0.50
2022-12-31T06:52:48.570Z,0.70
2022-12-31T06:55:16.391Z,0.60
2022-12-31T07:39:48.101Z,1.57
2022-12-31T07:42:40.099Z,0.70
2022-12-31T07:45:52.188Z,0.90
2022-12-31T07:48:26.531Z,0.90
2022-12-31T07:50:55.800Z,2.50
2022-12-31T07:53:32.902Z,0.60
2022-12-31T07:56:08.694Z,0.67
2022-12-31T07:58:41.168Z,0.60
2022-12-31T08:01:23.124Z,0.60
2022-12-31T08:04:29.632Z,0.63
2022-12-31T08:07:54.921Z,0.70
2022-12-31T08:10:36.846Z,0.60
2022-12-31T08:13:10.629Z,1.00
2022-12-31T08:15:40.020Z,0.70
2022-12-31T08:18:08.698Z,1.83
2022-12-31T08:20:49.261Z,0.60
2022-12-31T08:23:40.640Z,1.27
2022-12-31T08:26:24.776Z,2.50
2022-12-31T08:29:35.202Z,0.77
2022-12-31T08:32:22.819Z,0.80
2022-12-31T08:35:12.581Z,0.90
2022-12-31T08:37:43.969Z,0.70
2022-12-31T08:40:19.981Z,1.10
2022-12-31T08:42:52.900Z,2.53
2022-12-31T08:45:26.528Z,0.70
2022-12-31T08:48:25.816Z,1.83
2022-12-31T08:50:54.258Z,1.93
2022-12-31T08:53:21.975Z,5.90
2022-12-31T08:55:58.219Z,0.60
2022-12-31T08:58:34.259Z,0.97
2022-12-31T09:01:02.262Z,0.80
2022-12-31T09:04:09.646Z,0.90
2022-12-31T09:06:46.722Z,0.70
2022-12-31T09:09:28.035Z,0.60
2022-12-31T09:12:31.278Z,3.27
2022-12-31T09:15:21.433Z,2.20
2022-12-31T09:17:52.098Z,0.70
2022-12-31T09:20:42.333Z,1.63
2022-12-31T09:23:12.434Z,0.60
2022-12-31T09:26:01.265Z,0.60
2022-12-31T09:28:54.053Z,0.80
2022-12-31T09:31:49.064Z,1.63
2022-12-31T09:34:50.851Z,0.90
2022-12-31T09:37:49.679Z,1.03
2022-12-31T09:40:28.975Z,2.20
2022-12-31T09:43:33.344Z,0.87
2022-12-31T09:46:44.776Z,0.77
2022-12-31T09:49:33.125Z,0.93
2022-12-31T09:52:25.922Z,3.17
2022-12-31T09:54:58.779Z,0.70
2022-12-31T09:58:18.016Z,0.70
2022-12-31T10:00:59.348Z,1.20
2022-12-31T10:03:57.297Z,0.60
2022-12-31T10:06:52.269Z,1.07
2022-12-31T10:09:32.891Z,0.70
2022-12-31T10:12:30.727Z,1.30
2022-12-31T10:15:31.235Z,0.77
2022-12-31T10:18:45.539Z,1.43
2022-12-31T10:21:55.083Z,0.60
2022-12-31T10:24:34.034Z,0.70
2022-12-31T10:27:46.084Z,2.27
2022-12-31T10:30:24.180Z,0.70
2022-12-31T10:33:18.320Z,0.90
2022-12-31T10:36:31.213Z,0.60
2022-12-31T10:39:22.202Z,2.07
2022-12-31T10:42:09.934Z,0.80
2022-12-31T10:44:55.054Z,2.00
2022-12-31T10:47:52.467Z,0.70
2022-12-31T10:50:46.796Z,0.77
2022-12-31T10:53:58.713Z,0.80
2022-12-31T10:57:11.962Z,0.80
2022-12-31T11:00:17.710Z,1.40
2022-12-31T11:03:03.395Z,0.90
2022-12-31T11:05:52.082Z,5.27
2022-12-31T11:08:49.589Z,0.80
2022-12-31T11:11:43.056Z,3.23
2022-12-31T11:14:34.848Z,1.43
2022-12-31T11:17:20.488Z,0.60
2022-12-31T11:20:15.578Z,0.80
2022-12-31T11:23:15.466Z,2.50
2022-12-31T11:26:10.219Z,2.20
2022-12-31T11:29:09.638Z,1.90
2022-12-31T11:31:58.267Z,0.93
2022-12-31T11:35:15.215Z,3.63
2022-12-31T11:38:05.087Z,0.70
2022-12-31T11:41:02.492Z,1.43
2022-12-31T11:43:44.633Z,2.70
2022-12-31T11:46:39.846Z,0.90
2022-12-31T11:49:47.313Z,0.70
2022-12-31T11:52:25.134Z,1.07
2022-12-31T11:55:05.666Z,1.70
2022-12-31T11:57:41.608Z,0.70
2022-12-31T12:00:22.065Z,0.70
2022-12-31T12:03:01.589Z,0.80
2022-12-31T12:05:29.323Z,0.70
2022-12-31T12:07:57.395Z,1.90
2022-12-31T12:10:42.555Z,6.10
2022-12-31T12:13:24.688Z,4.60
2022-12-31T12:16:03.790Z,1.10
2022-12-31T12:18:45.484Z,0.80
2022-12-31T12:21:18.425Z,0.60
2022-12-31T12:24:05.729Z,0.70
2022-12-31T12:26:43.341Z,2.80
2022-12-31T12:29:12.993Z,0.90
2022-12-31T12:31:40.329Z,2.60
2022-12-31T12:34:28.756Z,1.97
2022-12-31T12:36:56.659Z,0.70
2022-12-31T12:39:31.961Z,0.90
2022-12-31T12:42:14.320Z,0.70
2022-12-31T12:44:44.670Z,2.77
2022-12-31T12:47:17.911Z,0.80
2022-12-31T12:49:54.252Z,1.13
2022-12-31T12:53:17.629Z,1.27
2022-12-31T12:56:06.645Z,1.13
2022-12-31T12:58:53.110Z,1.10
2022-12-31T13:01:47.735Z,0.70
2022-12-31T13:05:05.853Z,4.10
2022-12-31T13:07:55.014Z,1.63
2022-12-31T13:10:46.620Z,1.50
2022-12-31T13:13:43.249Z,1.30
2022-12-31T13:16:38.079Z,1.90
2022-12-31T13:19:17.069Z,1.20
2022-12-31T13:21:44.171Z,1.67
2022-12-31T13:24:38.149Z,1.00
2022-12-31T13:27:23.003Z,0.60
2022-12-31T13:29:52.526Z,1.10
2022-12-31T13:32:29.803Z,1.23
2022-12-31T13:35:17.074Z,1.20
2022-12-31T13:37:45.297Z,1.10
2022-12-31T13:40:58.558Z,0.60
2022-12-31T13:43:37.390Z,0.97
2022-12-31T13:46:28.331Z,2.20
2022-12-31T13:49:03.547Z,2.20
2022-12-31T13:51:46.468Z,0.97
2022-12-31T13:54:35.633Z,1.10
2022-12-31T13:57:18.711Z,1.10
2022-12-31T13:59:54.654Z,1.60
2022-12-31T14:02:47.900Z,7.93
2022-12-31T14:05:34.168Z,1.23
2022-12-31T14:08:04.547Z,0.80
2022-12-31T14:11:19.109Z,0.90
2022-12-31T14:14:26.932Z,1.27
2022-12-31T14:17:20.009Z,2.67
2022-12-31T14:19:52.871Z,2.30
2022-12-31T14:22:38.550Z,1.93
2022-12-31T14:25:21.884Z,1.67
2022-12-31T14:27:53.489Z,2.50
2022-12-31T14:30:24.151Z,2.30
2022-12-31T14:33:06.362Z,4.10
2022-12-31T14:36:18.103Z,0.80
2022-12-31T14:39:08.971Z,1.70
2022-12-31T14:41:57.844Z,1.10
2022-12-31T14:45:00.314Z,0.90
2022-12-31T14:48:23.895Z,1.10
2022-12-31T14:50:52.750Z,6.43
2022-12-31T14:53:27.726Z,0.90
2022-12-31T14:56:08.599Z,1.10
2022-12-31T14:58:42.639Z,2.30
2022-12-31T15:01:15.912Z,1.83
2022-12-31T15:03:46.102Z,1.83
2022-12-31T15:06:41.124Z,3.73
2022-12-31T15:09:59.751Z,2.43
2022-12-31T15:12:53.381Z,1.47
2022-12-31T15:16:18.508Z,1.63
2022-12-31T15:19:07.009Z,0.87
2022-12-31T15:21:59.156Z,1.50
2022-12-31T15:24:30.753Z,1.30
2022-12-31T15:27:04.698Z,2.27
2022-12-31T15:29:41.088Z,2.43
2022-12-31T15:32:19.285Z,1.60
2022-12-31T15:34:46.573Z,2.23
2022-12-31T15:37:36.887Z,1.83
2022-12-31T15:40:16.361Z,2.40
2022-12-31T15:42:52.233Z,1.87
2022-12-31T15:45:31.622Z,1.60
2022-12-31T15:48:02.384Z,1.73
2022-12-31T15:50:30.203Z,1.50
2022-12-31T15:53:02.931Z,3.07
2022-12-31T15:55:52.338Z,3.20
2022-12-31T15:58:35.921Z,2.90
2022-12-31T16:01:19.927Z,4.33
2022-12-31T16:03:55.830Z,7.73
2022-12-31T16:06:23.321Z,1.67
2022-12-31T16:08:50.747Z,0.90
2022-12-31T16:11:18.641Z,4.80
2022-12-31T16:13:52.361Z,1.37
2022-12-31T16:16:31.759Z,3.70
2022-12-31T16:19:00.880Z,3.00
2022-12-31T16:21:38.642Z,2.23
2022-12-31T16:24:32.189Z,4.07
2022-12-31T16:27:14.142Z,7.13
2022-12-31T16:29:55.695Z,1.40
2022-12-31T16:32:23.456Z,3.43
2022-12-31T16:34:50.527Z,6.30
2022-12-31T16:37:20.753Z,2.70
2022-12-31T16:40:19.223Z,8.60
2022-12-31T16:42:47.785Z,4.93
2022-12-31T16:45:36.902Z,6.60
2022-12-31T16:48:17.409Z,5.90
2022-12-31T16:50:52.839Z,3.20
2022-12-31T16:53:24.865Z,2.67
2022-12-31T16:55:57.504Z,7.07
2022-12-31T16:58:32.681Z,2.50
2022-12-31T17:01:28.605Z,8.53
2022-12-31T17:04:01.126Z,5.40
2022-12-31T17:06:32.178Z,6.53
2022-12-31T17:09:22.381Z,9.13
2022-12-31T17:11:55.524Z,16.00
2022-12-31T17:14:29.208Z,22.10
2022-12-31T17:17:05.755Z,5.90
2022-12-31T17:19:38.516Z,5.70
2022-12-31T17:22:36.539Z,4.57
2022-12-31T17:25:28.191Z,4.20
2022-12-31T17:28:01.713Z,5.20
2022-12-31T17:30:32.713Z,5.80
2022-12-31T17:33:13.350Z,2.90
2022-12-31T17:35:45.290Z,4.50
2022-12-31T17:38:21.402Z,8.93
2022-12-31T17:41:08.816Z,2.37
2022-12-31T17:43:38.443Z,2.27
2022-12-31T17:46:17.173Z,2.60
2022-12-31T17:48:50.630Z,1.83
2022-12-31T17:51:18.933Z,3.50
2022-12-31T17:53:51.804Z,2.70
2022-12-31T17:56:20.647Z,1.30
2022-12-31T17:58:53.661Z,4.10
2022-12-31T18:01:23.511Z,2.97
2022-12-31T18:03:50.978Z,3.27
2022-12-31T18:06:21.747Z,5.97
2022-12-31T18:08:48.904Z,6.30
2022-12-31T18:11:22.886Z,5.30
2022-12-31T18:13:50.651Z,4.37
2022-12-31T18:16:17.924Z,13.90
2022-12-31T18:18:45.489Z,6.50
2022-12-31T18:21:32.964Z,8.93
2022-12-31T18:26:29.696Z,6.33
2022-12-31T18:28:59.871Z,9.87
2022-12-31T18:31:29.252Z,13.97
2022-12-31T18:33:58.849Z,27.80
2022-12-31T18:36:28.155Z,26.30
2022-12-31T18:38:55.376Z,15.20
2022-12-31T18:41:27.922Z,11.23
2022-12-31T18:43:55.994Z,20.33
2022-12-31T18:46:24.812Z,12.17
2022-12-31T18:48:51.885Z,15.43
2022-12-31T18:51:31.473Z,12.83
2022-12-31T18:54:03.201Z,10.60
2022-12-31T18:56:31.147Z,13.80
2022-12-31T18:58:59.708Z,13.97
2022-12-31T19:01:35.230Z,7.50
2022-12-31T19:04:33.931Z,26.60
2022-12-31T19:07:01.011Z,34.87
2022-12-31T19:09:45.073Z,13.20
2022-12-31T19:12:14.328Z,17.40
2022-12-31T19:14:41.467Z,19.43
2022-12-31T19:19:34.976Z,7.60
2022-12-31T19:22:02.910Z,14.30
2022-12-31T19:24:30.346Z,21.53
2022-12-31T19:26:57.472Z,10.00
2022-12-31T19:29:27.583Z,9.07
2022-12-31T19:31:55.142Z,7.67
2022-12-31T19:34:22.460Z,7.57
2022-12-31T19:36:49.594Z,10.77
2022-12-31T19:39:20.782Z,5.97
2022-12-31T19:41:54.669Z,5.43
2022-12-31T19:44:26.094Z,3.20
2022-12-31T19:46:53.198Z,6.33
2022-12-31T19:49:20.481Z,5.60
2022-12-31T19:51:47.919Z,2.40
2022-12-31T19:54:15.647Z,4.37
2022-12-31T19:56:42.709Z,3.80
2022-12-31T19:59:10.923Z,8.23
2022-12-31T20:01:38.235Z,2.33
2022-12-31T20:04:05.776Z,4.70
2022-12-31T20:06:32.922Z,2.60
2022-12-31T20:09:00.187Z,2.67
2022-12-31T20:11:27.926Z,2.13
2022-12-31T20:13:55.263Z,2.43
2022-12-31T20:16:26.870Z,3.33
2022-12-31T20:18:54.450Z,8.00
2022-12-31T20:21:25.589Z,5.53
2022-12-31T20:23:54.484Z,2.73
2022-12-31T20:26:23.442Z,3.47
2022-12-31T20:28:54.797Z,4.30
2022-12-31T20:31:24.819Z,2.30
2022-12-31T20:33:58.990Z,4.33
2022-12-31T20:36:26.460Z,3.40
2022-12-31T20:38:53.974Z,3.90
2022-12-31T20:41:23.208Z,3.00
2022-12-31T20:43:51.305Z,2.67
2022-12-31T20:46:23.204Z,1.30
2022-12-31T20:48:57.884Z,2.90
2022-12-31T20:51:27.039Z,12.67
2022-12-31T20:54:08.637Z,8.50
2022-12-31T20:56:40.993Z,1.63
2022-12-31T20:59:10.951Z,15.73
2022-12-31T21:02:11.779Z,5.10
2022-12-31T21:04:27.846Z,2.13
2022-12-31T21:06:57.606Z,2.20
2022-12-31T21:09:27.428Z,2.63
2022-12-31T21:12:13.312Z,5.93
2022-12-31T21:14:44.739Z,1.60
2022-12-31T21:17:12.157Z,3.43
2022-12-31T21:19:39.404Z,5.70
2022-12-31T21:22:06.521Z,4.37
2022-12-31T21:24:34.268Z,4.50
2022-12-31T21:27:01.436Z,3.13
2022-12-31T21:29:34.245Z,3.10
2022-12-31T21:32:01.733Z,3.37
2022-12-31T21:34:28.824Z,1.90
2022-12-31T21:36:55.999Z,2.33
2022-12-31T21:39:23.262Z,1.97
2022-12-31T21:41:52.992Z,5.60
2022-12-31T21:44:26.123Z,4.47
2022-12-31T21:47:42.526Z,2.40
2022-12-31T21:50:10.238Z,4.40
2022-12-31T21:52:37.464Z,2.27
2022-12-31T21:55:25.214Z,1.60
2022-12-31T21:58:24.842Z,1.83
2022-12-31T22:00:58.556Z,2.20
2022-12-31T22:03:27.454Z,2.30
2022-12-31T22:06:14.567Z,3.27
2022-12-31T22:08:44.029Z,37.30
2022-12-31T22:11:15.717Z,4.00
2022-12-31T22:13:43.096Z,4.47
2022-12-31T22:16:11.369Z,2.87
2022-12-31T22:18:42.264Z,3.40
2022-12-31T22:21:19.412Z,9.33
2022-12-31T22:23:54.365Z,4.67
2022-12-31T22:26:28.764Z,13.23
2022-12-31T22:28:59.205Z,3.07
2022-12-31T22:31:30.420Z,2.97
2022-12-31T22:33:58.727Z,23.53
2022-12-31T22:36:25.941Z,6.93
2022-12-31T22:38:58.169Z,11.03
2022-12-31T22:41:27.001Z,32.93
2022-12-31T22:44:02.994Z,3.57
2022-12-31T22:46:32.123Z,8.20
2022-12-31T22:49:01.210Z,6.00
2022-12-31T22:51:55.663Z,6.10
2022-12-31T22:54:18.330Z,1.23
2022-12-31T22:56:45.814Z,2.93
2022-12-31T22:59:13.100Z,4.43
2022-12-31T23:01:40.785Z,4.50
2022-12-31T23:04:07.978Z,13.90
2022-12-31T23:06:43.575Z,27.83
2022-12-31T23:09:31.131Z,23.00
2022-12-31T23:11:59.191Z,53.60
2022-12-31T23:14:45.385Z,43.67
2022-12-31T23:17:41.633Z,80.67
2022-12-31T23:20:34.085Z,45.37
2022-12-31T23:23:10.548Z,30.17
2022-12-31T23:25:43.302Z,29.50
2022-12-31T23:28:22.143Z,38.30
2022-12-31T23:30:50.714Z,18.73
2022-12-31T23:33:21.048Z,38.87
2022-12-31T23:35:48.586Z,14.80
2022-12-31T23:38:18.192Z,16.40
2022-12-31T23:40:45.989Z,18.23
2022-12-31T23:43:21.695Z,8.80
2022-12-31T23:45:51.926Z,8.43
2022-12-31T23:48:19.157Z,9.20
2022-12-31T23:50:53.573Z,53.00
2022-12-31T23:53:24.262Z,53.47
2022-12-31T23:55:52.763Z,14.27
2022-12-31T23:58:21.160Z,8.10
